Time;durP1;ratioP1;P1;durP2;ratioP2;P2;SDS_P1;SDS_P2;PMS_P1;PMS_P2;Temp;Humidity;BMP_temperature;BMP_pressure;BME280_temperature;BME280_humidity;BME280_pressure;Samples;Min_cycle;Max_cycle;Signal;HPM_P1;HPM_P2
2023/03/26 00:00:15;;;;;;;7.50;5.87;;;;;;;-143.84;90.20;43937.22;5091419;28;21014;-73
2023/03/26 00:02:42;;;;;;;9.60;6.20;;;;;;;-143.84;89.59;43895.34;5090741;28;20447;-73
2023/03/26 00:05:13;;;;;;;12.00;5.57;;;;;;;-143.84;89.55;43914.38;5091108;28;20510;-73
2023/03/26 00:07:41;;;;;;;5.47;3.90;;;;;;;-143.84;89.16;43912.47;5090898;28;20444;-73
2023/03/26 00:10:09;;;;;;;22.80;12.37;;;;;;;-143.84;89.81;43914.38;5090696;28;20492;-73
2023/03/26 00:12:38;;;;;;;6.57;5.00;;;;;;;-143.84;88.66;43882.00;5091390;28;20437;-73
2023/03/26 00:15:06;;;;;;;7.67;6.20;;;;;;;-143.84;88.05;43882.00;5091063;28;20446;-73
2023/03/26 00:17:33;;;;;;;8.97;7.13;;;;;;;-143.84;87.12;43855.38;5091321;28;20474;-73
2023/03/26 00:20:00;;;;;;;7.33;4.97;;;;;;;-143.84;86.31;43845.84;5091138;28;20443;-73
2023/03/26 00:22:28;;;;;;;4.87;4.47;;;;;;;-143.84;85.45;43954.34;5090901;28;20509;-73
2023/03/26 00:24:55;;;;;;;5.27;4.77;;;;;;;-143.84;83.92;44285.59;5090912;28;20440;-73
2023/03/26 00:27:24;;;;;;;6.80;4.67;;;;;;;-143.84;82.72;44595.91;5091010;28;20968;-73
2023/03/26 00:29:55;;;;;;;4.40;4.10;;;;;;;-143.84;81.97;44744.41;5090998;28;20434;-73
2023/03/26 00:32:22;;;;;;;4.03;3.73;;;;;;;-143.84;81.41;44877.69;5090933;28;20485;-72
2023/03/26 00:34:50;;;;;;;4.67;4.33;;;;;;;-143.84;80.36;44967.19;5091295;28;20434;-73
2023/03/26 00:37:19;;;;;;;8.10;4.20;;;;;;;-143.84;80.85;44932.91;5090696;28;20472;-72
2023/03/26 00:39:48;;;;;;;6.70;4.50;;;;;;;-143.84;79.94;45001.47;5090666;28;20534;-72
2023/03/26 00:42:15;;;;;;;7.40;4.53;;;;;;;-143.84;79.62;45010.97;5090673;28;20875;-72
2023/03/26 00:44:42;;;;;;;18.00;9.50;;;;;;;-143.84;78.57;45077.63;5090626;28;20990;-72
2023/03/26 00:47:10;;;;;;;4.27;3.97;;;;;;;-143.84;78.46;45035.75;5090826;28;20447;-72
2023/03/26 00:49:38;;;;;;;7.30;5.53;;;;;;;-143.84;78.61;45070.00;5090266;28;20459;-72
2023/03/26 00:52:07;;;;;;;12.00;7.00;;;;;;;-143.84;78.73;45041.44;5090622;28;20440;-72
2023/03/26 00:54:34;;;;;;;9.00;7.00;;;;;;;-143.84;79.17;45030.03;5090178;28;20821;-72
2023/03/26 00:57:01;;;;;;;11.07;7.23;;;;;;;-143.84;78.91;45037.66;5090215;28;21097;-72
2023/03/26 00:59:29;;;;;;;9.47;6.87;;;;;;;-143.84;78.68;45043.34;5089406;28;20456;-72
2023/03/26 01:01:57;;;;;;;7.37;6.57;;;;;;;-143.84;78.40;45089.06;5089840;28;20780;-72
2023/03/26 01:04:29;;;;;;;9.40;8.20;;;;;;;-143.84;78.74;45083.34;5089649;28;20436;-72
2023/03/26 01:06:58;;;;;;;14.17;8.03;;;;;;;-143.84;78.67;45054.78;5090114;28;20448;-72
2023/03/26 01:09:31;;;;;;;9.40;6.67;;;;;;;-143.84;78.60;45037.66;5089826;28;20546;-72
2023/03/26 01:12:01;;;;;;;9.37;7.00;;;;;;;-143.84;78.89;45056.69;5090003;28;20444;-72
2023/03/26 01:14:29;;;;;;;12.77;8.90;;;;;;;-143.84;78.42;45041.44;5090121;28;20515;-72
2023/03/26 01:16:58;;;;;;;12.87;9.17;;;;;;;-143.84;78.35;45052.88;5090111;28;20939;-72
2023/03/26 01:19:36;;;;;;;18.87;12.17;;;;;;;-143.84;78.40;45064.31;5089909;28;20517;-72
2023/03/26 01:22:05;;;;;;;21.97;14.53;;;;;;;-143.84;78.58;45071.91;5089463;28;20452;-72
2023/03/26 01:24:33;;;;;;;16.27;12.13;;;;;;;-143.84;78.76;45066.22;5089562;28;21160;-72
2023/03/26 01:27:17;;;;;;;12.97;9.00;;;;;;;-143.84;78.20;45085.25;5089574;28;20517;-72
2023/03/26 01:29:51;;;;;;;11.83;9.00;;;;;;;-143.84;78.08;45070.00;5089605;28;20442;-72
2023/03/26 01:32:29;;;;;;;11.40;10.20;;;;;;;-143.84;78.03;45079.53;5089670;28;20436;-72
2023/03/26 01:35:11;;;;;;;13.73;10.77;;;;;;;-143.84;78.65;45079.53;5089665;28;20449;-72
2023/03/26 01:37:51;;;;;;;14.63;10.37;;;;;;;-143.84;78.60;45102.38;5089450;28;20610;-72
2023/03/26 01:40:26;;;;;;;16.30;11.77;;;;;;;-143.84;78.48;45085.25;5089664;28;21370;-72
2023/03/26 01:43:00;;;;;;;17.90;12.23;;;;;;;-143.84;78.71;45047.16;5089981;28;20468;-72
2023/03/26 01:45:32;;;;;;;17.90;10.80;;;;;;;-143.84;78.51;45033.84;5089564;28;20886;-72
2023/03/26 01:48:00;;;;;;;16.47;10.77;;;;;;;-143.84;78.40;45062.41;5089662;28;21211;-72
2023/03/26 01:50:27;;;;;;;13.37;9.83;;;;;;;-143.84;78.31;45052.88;5089490;28;20524;-72
2023/03/26 01:52:54;;;;;;;12.77;9.50;;;;;;;-143.84;78.05;45075.72;5089577;28;20446;-72
2023/03/26 01:55:27;;;;;;;20.83;11.03;;;;;;;-143.84;77.74;45079.53;5089594;28;20478;-72
2023/03/26 01:58:02;;;;;;;13.80;9.63;;;;;;;-143.84;77.67;45092.88;5089657;28;20523;-72
2023/03/26 02:00:33;;;;;;;15.27;10.43;;;;;;;-143.84;78.21;45070.00;5089364;28;20447;-72
2023/03/26 02:03:21;;;;;;;14.37;10.30;;;;;;;-143.84;77.99;45102.38;5088572;28;20444;-72
2023/03/26 02:05:55;;;;;;;17.10;10.73;;;;;;;-143.84;78.20;45075.72;5088314;28;20440;-72
2023/03/26 02:08:34;;;;;;;23.23;11.67;;;;;;;-143.84;78.20;45087.16;5095231;28;20443;-72
2023/03/26 02:11:09;;;;;;;19.60;12.67;;;;;;;-143.84;78.54;45068.13;5109125;28;20536;-72
2023/03/26 02:13:37;;;;;;;18.70;11.10;;;;;;;-143.84;78.40;45077.63;5109556;28;20861;-72
2023/03/26 02:16:07;;;;;;;14.27;10.77;;;;;;;-143.84;78.57;45073.81;5109649;28;20518;-72
2023/03/26 02:18:37;;;;;;;13.67;9.93;;;;;;;-143.84;78.46;45064.31;5109417;28;20508;-72
2023/03/26 02:21:11;;;;;;;14.00;9.10;;;;;;;-143.84;78.51;45079.53;5109217;28;20455;-72
2023/03/26 02:23:39;;;;;;;15.07;9.80;;;;;;;-143.84;78.33;45079.53;5109429;28;20517;-72
2023/03/26 02:26:10;;;;;;;12.50;9.57;;;;;;;-143.84;78.31;45090.97;5109238;28;20443;-72
2023/03/26 02:28:38;;;;;;;11.90;9.60;;;;;;;-143.84;78.28;45089.06;5109392;28;20469;-72
2023/03/26 02:31:09;;;;;;;13.60;9.37;;;;;;;-143.84;78.34;45106.19;5109447;28;20436;-72
2023/03/26 02:33:38;;;;;;;14.53;8.50;;;;;;;-143.84;78.40;45075.72;5109289;28;20507;-72
2023/03/26 02:36:07;;;;;;;14.37;7.83;;;;;;;-143.84;78.25;45090.97;5109241;28;20840;-72
2023/03/26 02:38:34;;;;;;;12.37;8.80;;;;;;;-143.84;78.03;45075.72;5109126;28;20892;-72
2023/03/26 02:41:02;;;;;;;22.83;9.73;;;;;;;-143.84;78.09;45096.66;5109021;28;20435;-72
2023/03/26 02:43:31;;;;;;;10.90;8.83;;;;;;;-143.84;78.51;45110.00;5109216;28;20443;-72
2023/03/26 02:45:58;;;;;;;15.60;9.80;;;;;;;-143.84;78.13;45087.16;5109313;28;20845;-72
2023/03/26 02:48:25;;;;;;;14.30;8.87;;;;;;;-143.84;78.31;45102.38;5109125;28;20443;-73
2023/03/26 02:50:54;;;;;;;13.10;9.40;;;;;;;-143.84;78.05;45121.44;5108980;28;20463;-72
2023/03/26 02:53:22;;;;;;;8.70;5.87;;;;;;;-143.84;77.77;45134.75;5108896;28;20521;-72
2023/03/26 02:55:49;;;;;;;14.47;8.27;;;;;;;-143.84;77.80;45119.53;5108885;28;21124;-72
2023/03/26 02:58:16;;;;;;;7.10;5.50;;;;;;;-143.84;77.72;45100.47;5109042;28;20478;-72
2023/03/26 03:00:45;;;;;;;5.83;5.17;;;;;;;-143.84;77.28;45121.44;5108868;28;20587;-72
2023/03/26 03:03:13;;;;;;;7.07;5.20;;;;;;;-143.84;77.73;45117.63;5109047;28;20451;-72
2023/03/26 03:05:41;;;;;;;11.43;5.10;;;;;;;-143.84;78.14;45119.53;5108751;28;20519;-72
2023/03/26 03:08:09;;;;;;;5.77;4.43;;;;;;;-143.84;77.58;45132.84;5109175;28;20431;-72
2023/03/26 03:10:36;;;;;;;16.43;4.70;;;;;;;-143.84;77.86;45121.44;5108967;28;20544;-72
2023/03/26 03:13:06;;;;;;;12.57;7.00;;;;;;;-143.84;77.80;45100.47;5108719;28;20465;-72
2023/03/26 03:15:33;;;;;;;4.40;3.37;;;;;;;-143.84;77.88;45102.38;5108290;28;20438;-72
2023/03/26 03:18:02;;;;;;;4.00;3.20;;;;;;;-143.84;77.54;45111.91;5108217;28;21077;-72
2023/03/26 03:20:30;;;;;;;5.00;3.40;;;;;;;-143.84;77.51;45148.09;5108009;28;20517;-72
2023/03/26 03:22:57;;;;;;;5.90;3.97;;;;;;;-143.84;77.49;45104.28;5107740;28;20447;-72
2023/03/26 03:25:24;;;;;;;13.13;5.67;;;;;;;-143.84;77.61;45098.56;5107831;28;20500;-72
2023/03/26 03:27:52;;;;;;;8.80;4.80;;;;;;;-143.84;77.54;45134.75;5111984;28;20883;-72
2023/03/26 03:30:19;;;;;;;8.43;5.03;;;;;;;-143.84;77.54;45108.09;5112378;28;20445;-73
2023/03/26 03:32:47;;;;;;;5.27;4.10;;;;;;;-143.84;77.43;45090.97;5112421;28;20919;-72
2023/03/26 03:35:16;;;;;;;8.70;3.80;;;;;;;-143.84;77.18;45138.56;5112379;28;20479;-72
2023/03/26 03:37:43;;;;;;;5.63;4.10;;;;;;;-143.84;77.90;45113.81;5112400;28;20998;-72
2023/03/26 03:40:11;;;;;;;6.10;5.20;;;;;;;-143.84;77.73;45130.94;5112390;28;20476;-72
2023/03/26 03:42:38;;;;;;;8.53;5.80;;;;;;;-143.84;77.99;45121.44;5112247;28;20518;-72
2023/03/26 03:45:06;;;;;;;5.70;5.00;;;;;;;-143.84;78.25;45106.19;5112130;28;20844;-72
2023/03/26 03:47:33;;;;;;;10.07;6.17;;;;;;;-143.84;78.55;45058.59;5112048;28;20512;-72
2023/03/26 03:50:01;;;;;;;4.20;3.47;;;;;;;-143.84;78.77;45073.81;5112319;28;20436;-72
2023/03/26 03:52:29;;;;;;;3.40;3.10;;;;;;;-143.84;79.31;45071.91;5112217;28;20453;-71
2023/03/26 03:54:59;;;;;;;5.17;3.50;;;;;;;-143.84;79.61;45033.84;5111910;28;20504;-72
2023/03/26 03:57:27;;;;;;;6.13;3.10;;;;;;;-143.84;80.12;45012.88;5111929;28;20477;-72
2023/03/26 03:59:56;;;;;;;3.83;3.40;;;;;;;-143.84;80.45;45007.19;5111834;28;20458;-72
2023/03/26 04:02:29;;;;;;;3.80;3.40;;;;;;;-143.84;80.54;44971.00;5112178;28;20434;-72
2023/03/26 04:04:57;;;;;;;3.40;3.10;;;;;;;-143.84;80.87;44955.75;5112024;28;20528;-72
2023/03/26 04:07:25;;;;;;;3.90;3.53;;;;;;;-143.84;80.68;44944.34;5111967;28;20427;-72
2023/03/26 04:09:54;;;;;;;4.33;3.53;;;;;;;-143.84;81.15;44942.44;5111629;28;20547;-72
2023/03/26 04:12:21;;;;;;;5.23;3.33;;;;;;;-143.84;80.79;44974.81;5111819;28;20516;-72
2023/03/26 04:14:48;;;;;;;3.20;3.00;;;;;;;-143.84;80.81;44932.91;5110938;28;20435;-72
2023/03/26 04:17:15;;;;;;;9.53;4.83;;;;;;;-143.84;80.51;44976.72;5110808;28;20561;-72
2023/03/26 04:19:43;;;;;;;5.37;3.23;;;;;;;-143.84;80.51;44999.56;5110953;28;20444;-72
2023/03/26 04:22:10;;;;;;;3.43;3.10;;;;;;;-143.84;80.76;44932.91;5111796;28;20443;-72
2023/03/26 04:24:39;;;;;;;5.27;3.50;;;;;;;-143.84;81.13;44929.09;5111481;28;20467;-72
2023/03/26 04:27:09;;;;;;;3.67;3.37;;;;;;;-143.84;81.30;44877.69;5111297;28;20446;-72
2023/03/26 04:29:42;;;;;;;6.83;4.73;;;;;;;-143.84;81.98;44824.38;5111392;28;20503;-72
2023/03/26 04:32:18;;;;;;;4.07;3.70;;;;;;;-143.84;82.07;44799.63;5111530;28;20438;-72
2023/03/26 04:34:46;;;;;;;5.87;4.20;;;;;;;-143.84;82.26;44774.88;5111251;28;20449;-72
2023/03/26 04:37:23;;;;;;;7.40;5.07;;;;;;;-143.84;82.25;44753.94;5110240;28;20485;-72
2023/03/26 04:39:50;;;;;;;3.67;3.47;;;;;;;-143.84;82.61;44731.09;5111167;28;20451;-70
2023/03/26 04:42:19;;;;;;;5.00;3.80;;;;;;;-143.84;82.81;44668.25;5111509;28;20559;-71
2023/03/26 04:44:49;;;;;;;5.47;3.93;;;;;;;-143.84;82.62;44647.31;5111258;28;20447;-71
2023/03/26 04:47:17;;;;;;;4.10;3.73;;;;;;;-143.84;83.24;44597.81;5110798;28;20504;-71
2023/03/26 04:49:44;;;;;;;5.23;4.50;;;;;;;-143.84;83.35;44464.53;5110640;28;20435;-72
2023/03/26 04:52:12;;;;;;;10.13;4.90;;;;;;;-143.84;83.55;44462.63;5110423;28;20450;-71
2023/03/26 04:54:40;;;;;;;4.30;4.00;;;;;;;-143.84;83.36;44468.34;5110294;28;20492;-72
2023/03/26 04:57:14;;;;;;;5.00;4.33;;;;;;;-143.84;84.06;44314.13;5099650;28;20447;-72
2023/03/26 04:59:43;;;;;;;5.17;4.77;;;;;;;-143.84;84.55;44234.19;5090246;28;20520;-72
2023/03/26 05:02:13;;;;;;;4.30;3.90;;;;;;;-143.84;84.53;44175.16;5090199;28;20447;-72
2023/03/26 05:04:42;;;;;;;3.70;3.40;;;;;;;-143.84;84.45;44161.84;5089969;28;20467;-72
2023/03/26 05:07:11;;;;;;;4.20;3.80;;;;;;;-143.84;84.40;44213.25;5090181;28;20534;-72
2023/03/26 05:09:38;;;;;;;4.50;4.10;;;;;;;-143.84;85.03;44106.63;5089759;28;20539;-72
2023/03/26 05:12:06;;;;;;;7.17;5.30;;;;;;;-143.84;85.00;44064.75;5089734;28;20940;-71
2023/03/26 05:14:35;;;;;;;5.50;4.90;;;;;;;-143.84;85.06;43990.53;5090039;28;20439;-71
2023/03/26 05:17:05;;;;;;;4.77;4.47;;;;;;;-143.84;84.97;44045.72;5089598;28;20451;-72
2023/03/26 05:19:32;;;;;;;5.10;4.70;;;;;;;-143.84;84.85;44066.66;5089591;28;20487;-72
2023/03/26 05:21:59;;;;;;;6.40;4.33;;;;;;;-143.84;84.77;44074.28;5089894;28;20501;-72
2023/03/26 05:24:27;;;;;;;4.50;4.10;;;;;;;-143.84;85.32;44020.97;5089768;28;20443;-72
2023/03/26 05:26:55;;;;;;;5.00;4.50;;;;;;;-143.84;85.29;44024.78;5089423;28;20442;-72
2023/03/26 05:29:23;;;;;;;4.33;3.97;;;;;;;-143.84;85.16;43994.31;5089652;28;20450;-72
2023/03/26 05:31:50;;;;;;;5.90;4.20;;;;;;;-143.84;85.31;44001.94;5089663;28;20437;-71
2023/03/26 05:34:22;;;;;;;5.33;4.80;;;;;;;-143.84;85.60;43979.09;5090249;28;20577;-71
2023/03/26 05:36:50;;;;;;;5.07;4.47;;;;;;;-143.84;85.37;43982.91;5090091;28;20444;-71
2023/03/26 05:39:24;;;;;;;5.30;4.90;;;;;;;-143.84;85.47;43969.59;5089765;28;20585;-71
2023/03/26 05:41:52;;;;;;;5.70;5.20;;;;;;;-143.84;85.99;43878.22;5089023;28;20441;-71
2023/03/26 05:44:19;;;;;;;4.87;4.50;;;;;;;-143.84;86.22;43908.66;5089306;28;20554;-72
2023/03/26 05:46:46;;;;;;;5.20;4.80;;;;;;;-143.84;86.11;43889.63;5089492;28;21035;-72
2023/03/26 05:49:13;;;;;;;6.60;5.97;;;;;;;-143.84;86.52;43853.47;5089248;28;20439;-71
2023/03/26 05:51:42;;;;;;;6.73;6.07;;;;;;;-143.84;86.65;43823.00;5089821;28;20523;-72
2023/03/26 05:54:09;;;;;;;5.80;5.40;;;;;;;-143.84;86.61;43872.50;5092727;28;20508;-72
2023/03/26 05:56:36;;;;;;;9.40;7.50;;;;;;;-143.84;86.60;43823.00;5108965;28;20537;-71
2023/03/26 05:59:03;;;;;;;7.63;6.93;;;;;;;-143.84;86.86;43836.34;5109152;28;20544;-72
2023/03/26 06:01:31;;;;;;;6.27;5.70;;;;;;;-143.84;86.59;43864.88;5110974;28;20432;-77
2023/03/26 06:03:58;;;;;;;7.30;6.70;;;;;;;-143.84;85.83;43883.91;5111832;28;20438;-77
2023/03/26 06:06:25;;;;;;;6.77;6.07;;;;;;;-143.84;84.59;44099.03;5112528;28;20439;-77
2023/03/26 06:08:54;;;;;;;4.83;3.90;;;;;;;-143.84;83.92;44196.13;5110663;28;20442;-76
2023/03/26 06:11:21;;;;;;;3.90;3.60;;;;;;;-143.84;84.07;44234.19;5100416;28;20573;-76
2023/03/26 06:13:48;;;;;;;5.03;4.50;;;;;;;-143.84;84.00;44268.44;5111406;28;21119;-75
2023/03/26 06:16:16;;;;;;;4.93;3.80;;;;;;;-143.84;84.43;44116.16;5091291;28;20509;-75
2023/03/26 06:18:43;;;;;;;5.20;4.80;;;;;;;-143.84;84.94;44091.41;5092675;28;20886;-75
2023/03/26 06:21:11;;;;;;;5.03;4.63;;;;;;;-143.84;85.15;43988.63;5090017;28;20443;-75
2023/03/26 06:23:38;;;;;;;4.17;3.33;;;;;;;-143.84;85.17;44043.81;5093233;28;20527;-76
2023/03/26 06:26:06;;;;;;;4.73;4.37;;;;;;;-143.84;85.40;44011.47;5090570;28;20888;-76
2023/03/26 06:28:34;;;;;;;4.17;3.70;;;;;;;-143.84;84.94;44020.97;5100034;28;20455;-76
2023/03/26 06:31:01;;;;;;;4.83;4.23;;;;;;;-143.84;85.24;44043.81;5091555;28;20460;-77
2023/03/26 06:33:29;;;;;;;9.77;4.60;;;;;;;-143.84;85.40;43961.97;5089396;28;20512;-77
2023/03/26 06:35:56;;;;;;;6.53;3.83;;;;;;;-143.84;84.71;44019.06;5091727;28;20454;-79
2023/03/26 06:38:23;;;;;;;7.23;5.03;;;;;;;-143.84;84.43;44161.84;5097935;28;20578;-76
2023/03/26 06:40:50;;;;;;;6.80;3.90;;;;;;;-143.84;83.82;44314.13;5088827;28;20448;-75
2023/03/26 06:43:19;;;;;;;8.20;5.33;;;;;;;-143.84;83.64;44434.09;5096736;28;20439;-79
2023/03/26 06:45:51;;;;;;;5.00;4.47;;;;;;;-143.84;83.38;44435.97;5098459;28;20477;-77
2023/03/26 06:48:18;;;;;;;11.33;4.27;;;;;;;-143.84;82.74;44708.25;5095437;28;20448;-76
2023/03/26 06:50:45;;;;;;;4.83;4.27;;;;;;;-143.84;82.85;44611.13;5094766;28;20458;-76
2023/03/26 06:53:12;;;;;;;5.27;3.63;;;;;;;-143.84;82.12;44786.31;5093330;28;20516;-76
2023/03/26 06:55:39;;;;;;;3.90;3.60;;;;;;;-143.84;82.27;44771.06;5099964;28;20492;-77
2023/03/26 06:58:06;;;;;;;4.63;4.13;;;;;;;-143.84;82.44;44755.84;5102196;28;20484;-77
2023/03/26 07:00:35;;;;;;;7.20;4.80;;;;;;;-143.84;82.19;44734.91;5092259;28;20446;-77
2023/03/26 07:03:03;;;;;;;10.03;4.60;;;;;;;-143.84;82.35;44746.31;5098312;28;20509;-75
2023/03/26 07:05:31;;;;;;;5.30;4.70;;;;;;;-143.84;81.23;44923.41;5096024;28;20438;-75
2023/03/26 07:07:58;;;;;;;7.00;6.30;;;;;;;-143.84;81.56;44868.19;5098238;28;20503;-76
2023/03/26 07:10:25;;;;;;;12.03;5.13;;;;;;;-143.84;80.30;44991.94;5095654;28;20538;-76
2023/03/26 07:12:53;;;;;;;6.80;4.70;;;;;;;-143.84;79.83;45018.59;5100308;28;20451;-76
2023/03/26 07:15:20;;;;;;;7.97;5.23;;;;;;;-143.84;80.19;45016.69;5092549;28;20432;-76
2023/03/26 07:17:49;;;;;;;7.73;4.87;;;;;;;-143.84;80.53;44997.66;5092885;28;20481;-76
2023/03/26 07:20:16;;;;;;;4.40;4.10;;;;;;;-143.84;80.10;45009.09;5093203;28;20541;-77
2023/03/26 07:22:44;;;;;;;3.90;3.60;;;;;;;-143.84;79.68;45037.66;5094171;28;20872;-76
2023/03/26 07:25:14;;;;;;;3.93;3.63;;;;;;;-143.84;79.99;44993.84;5092668;28;20452;-77
2023/03/26 07:27:49;;;;;;;4.80;3.80;;;;;;;-143.84;79.22;45049.06;5093519;28;20443;-77
2023/03/26 07:30:22;;;;;;;3.40;3.20;;;;;;;-143.84;79.14;45041.44;5093809;28;20439;-76
2023/03/26 07:32:56;;;;;;;3.83;3.53;;;;;;;-143.84;78.25;45070.00;5093148;28;21026;-76
2023/03/26 07:35:28;;;;;;;2.80;2.60;;;;;;;-143.84;77.35;45142.38;5094796;28;20443;-75
2023/03/26 07:38:11;;;;;;;3.07;2.87;;;;;;;-143.84;76.05;45100.47;5096976;28;20453;-76
2023/03/26 07:40:51;;;;;;;3.87;3.50;;;;;;;-143.84;75.46;45127.13;5091028;28;20454;-76
2023/03/26 07:43:33;;;;;;;3.90;3.53;;;;;;;-143.84;74.15;45130.94;5090462;28;20455;-77
2023/03/26 07:46:01;;;;;;;5.03;3.60;;;;;;;-143.84;73.01;45127.13;5090606;28;20450;-76
2023/03/26 07:48:39;;;;;;;4.70;4.03;;;;;;;-143.84;74.04;45167.13;5092351;28;20949;-76
2023/03/26 07:51:08;;;;;;;4.47;3.83;;;;;;;-143.84;71.94;45134.75;5091846;28;21028;-76
2023/03/26 07:53:35;;;;;;;4.90;3.53;;;;;;;-143.84;70.83;45119.53;5092409;28;20824;-76
2023/03/26 07:56:10;;;;;;;6.27;3.50;;;;;;;-143.84;69.21;45150.00;5092556;28;20446;-76
2023/03/26 07:58:54;;;;;;;3.57;3.10;;;;;;;-143.84;68.15;45140.47;5092592;28;20485;-77
2023/03/26 08:01:33;;;;;;;5.20;2.90;;;;;;;-143.84;67.06;45138.56;5092882;28;20682;-76
2023/03/26 08:04:22;;;;;;;4.60;4.20;;;;;;;-143.84;67.41;45184.25;5092614;28;20456;-76
2023/03/26 08:06:58;;;;;;;3.40;3.10;;;;;;;-143.84;67.78;45167.13;5096261;28;20464;-77
2023/03/26 08:09:35;;;;;;;6.17;4.27;;;;;;;-143.84;68.11;45140.47;5096123;28;20457;-76
2023/03/26 08:12:16;;;;;;;7.87;4.93;;;;;;;-143.84;68.05;45144.28;5096486;28;20442;-77
2023/03/26 08:14:51;;;;;;;6.73;4.93;;;;;;;-143.84;67.74;45155.69;5111362;28;20465;-76
2023/03/26 08:17:27;;;;;;;5.67;4.90;;;;;;;-143.84;67.97;45150.00;5105137;28;20855;-76
2023/03/26 08:20:10;;;;;;;5.60;5.20;;;;;;;-143.84;67.30;45140.47;5096168;28;20555;-76
2023/03/26 08:22:42;;;;;;;5.57;5.07;;;;;;;-143.84;68.15;45157.59;5104203;28;20524;-77
2023/03/26 08:25:28;;;;;;;6.70;6.10;;;;;;;-143.84;69.55;45153.81;5104512;28;20449;-76
2023/03/26 08:28:11;;;;;;;7.30;5.10;;;;;;;-143.84;68.20;45157.59;5100735;28;20447;-76
2023/03/26 08:30:38;;;;;;;6.20;5.17;;;;;;;-143.84;67.49;45136.66;5103314;28;20441;-77
2023/03/26 08:33:15;;;;;;;8.00;5.57;;;;;;;-143.84;65.59;45132.84;5092077;28;20977;-77
2023/03/26 08:35:44;;;;;;;4.80;4.50;;;;;;;-143.84;63.41;45159.50;5090389;28;20468;-76
2023/03/26 08:38:13;;;;;;;5.50;5.10;;;;;;;-143.84;62.00;45142.38;5089784;28;20470;-76
2023/03/26 08:41:13;;;;;;;5.73;5.10;;;;;;;-143.84;59.87;45146.19;5095359;28;20554;-77
2023/03/26 08:44:30;;;;;;;4.57;4.27;;;;;;;-143.84;59.08;45150.00;5060599;28;20485;-76
2023/03/26 08:47:26;;;;;;;6.63;4.50;;;;;;;-143.84;57.20;45138.56;5068578;28;20976;-74
2023/03/26 08:50:20;;;;;;;13.23;11.67;;;;;;;-143.84;53.72;45125.22;5066226;28;20450;-75
2023/03/26 08:53:10;;;;;;;7.30;5.13;;;;;;;-143.84;52.87;45144.28;5095093;28;20440;-76
2023/03/26 08:56:01;;;;;;;5.10;3.43;;;;;;;-143.84;51.34;45132.84;5090255;28;20455;-75
2023/03/26 08:59:18;;;;;;;3.80;3.60;;;;;;;-143.84;52.41;45142.38;5086008;28;21282;-76
2023/03/26 09:02:22;;;;;;;3.87;3.57;;;;;;;-143.84;49.85;45127.13;5000415;28;20521;-75
2023/03/26 09:05:24;;;;;;;5.93;2.80;;;;;;;-143.84;47.95;45132.84;5090639;28;20516;-73
2023/03/26 09:08:23;;;;;;;3.20;2.80;;;;;;;-143.84;49.00;45136.66;5090838;28;21012;-74
2023/03/26 09:11:19;;;;;;;3.07;2.87;;;;;;;-143.84;49.57;45146.19;5090468;28;20496;-74
2023/03/26 09:14:23;;;;;;;3.57;3.27;;;;;;;-143.84;49.21;45129.03;5102694;28;20954;-75
2023/03/26 09:17:25;;;;;;;2.63;2.47;;;;;;;-143.84;48.82;45142.38;5089218;28;20509;-75
2023/03/26 09:20:15;;;;;;;4.33;3.47;;;;;;;-143.84;50.36;45136.66;5044610;28;21093;-74
2023/03/26 09:23:14;;;;;;;3.50;3.20;;;;;;;-143.84;51.79;45163.31;5101432;28;20507;-75
2023/03/26 09:25:56;;;;;;;4.60;3.37;;;;;;;-143.84;53.29;45136.66;5097158;28;20478;-77
2023/03/26 09:29:04;;;;;;;2.63;2.43;;;;;;;-143.84;52.18;45132.84;5094151;28;20450;-70
2023/03/26 09:32:06;;;;;;;2.73;2.20;;;;;;;-143.84;49.71;45142.38;5091368;28;20451;-69
2023/03/26 09:34:51;;;;;;;5.30;2.60;;;;;;;-143.84;50.56;45140.47;5091451;28;20443;-70
2023/03/26 09:37:26;;;;;;;3.53;2.57;;;;;;;-143.84;50.57;45134.75;5090961;28;20439;-69
2023/03/26 09:40:03;;;;;;;2.77;2.57;;;;;;;-143.84;49.20;45136.66;5096375;28;20557;-70
2023/03/26 09:42:40;;;;;;;4.53;2.57;;;;;;;-143.84;49.74;45129.03;5097273;28;20436;-70
2023/03/26 09:45:41;;;;;;;2.43;2.23;;;;;;;-143.84;49.61;45134.75;5096823;28;20451;-69
2023/03/26 09:48:39;;;;;;;6.50;2.83;;;;;;;-143.84;50.36;45136.66;5097737;28;20439;-68
2023/03/26 09:51:21;;;;;;;2.30;2.10;;;;;;;-143.84;49.50;45130.94;5099440;28;20444;-67
2023/03/26 09:54:10;;;;;;;4.83;2.30;;;;;;;-143.84;49.46;45125.22;5094797;28;20501;-67
2023/03/26 09:56:48;;;;;;;3.27;3.07;;;;;;;-143.84;48.71;45108.09;5094899;28;21013;-69
2023/03/26 09:59:43;;;;;;;3.10;2.70;;;;;;;-143.84;49.89;45130.94;5094687;28;20487;-68
2023/03/26 10:02:25;;;;;;;4.07;2.80;;;;;;;-143.84;51.25;45151.91;5098276;28;20439;-68
2023/03/26 10:05:20;;;;;;;3.07;2.77;;;;;;;-143.84;49.14;45132.84;5092303;28;20438;-67
2023/03/26 10:08:02;;;;;;;5.37;2.80;;;;;;;-143.84;49.71;45123.34;5092167;28;20440;-66
2023/03/26 10:10:40;;;;;;;4.67;3.13;;;;;;;-143.84;49.42;45144.28;5098504;28;20482;-67
2023/03/26 10:13:21;;;;;;;5.00;2.87;;;;;;;-143.84;51.67;45108.09;5093803;28;20478;-66
2023/03/26 10:16:05;;;;;;;8.40;2.77;;;;;;;-143.84;49.76;45136.66;5093036;28;20573;-67
2023/03/26 10:18:47;;;;;;;9.47;6.20;;;;;;;-143.84;47.78;45155.69;5094385;28;21024;-67
2023/03/26 10:21:22;;;;;;;4.53;4.13;;;;;;;-143.84;48.52;45121.44;5095901;28;20440;-67
2023/03/26 10:24:04;;;;;;;6.37;4.13;;;;;;;-143.84;50.90;45144.28;5098784;28;20507;-67
2023/03/26 10:26:43;;;;;;;4.10;3.70;;;;;;;-143.84;48.90;45138.56;5096969;28;20435;-68
2023/03/26 10:29:27;;;;;;;10.17;5.50;;;;;;;-143.84;48.43;45146.19;5097446;28;20454;-66
2023/03/26 10:32:06;;;;;;;7.10;3.50;;;;;;;-143.84;48.28;45102.38;5092919;28;20440;-66
2023/03/26 10:34:56;;;;;;;17.10;11.10;;;;;;;-143.84;48.68;45119.53;5093401;28;20496;-67
2023/03/26 10:37:36;;;;;;;8.43;5.50;;;;;;;-143.84;48.82;45155.69;5092053;28;20454;-66
2023/03/26 10:40:24;;;;;;;6.57;5.23;;;;;;;-143.84;48.51;45151.91;5100630;28;20492;-71
2023/03/26 10:43:20;;;;;;;8.73;7.83;;;;;;;-143.84;48.79;45157.59;5107185;28;20512;-68
2023/03/26 10:46:17;;;;;;;6.00;5.10;;;;;;;-143.84;47.84;45121.44;5102756;28;20454;-68
2023/03/26 10:48:59;;;;;;;23.73;13.43;;;;;;;-143.84;47.69;45136.66;5105666;28;20451;-67
2023/03/26 10:51:38;;;;;;;10.20;5.97;;;;;;;-143.84;46.41;45136.66;5104949;28;20968;-67
2023/03/26 10:54:11;;;;;;;34.27;16.37;;;;;;;-143.84;48.27;45136.66;5101241;28;20459;-66
2023/03/26 10:56:44;;;;;;;39.43;15.97;;;;;;;-143.84;48.11;45134.75;5093017;28;20439;-67
2023/03/26 10:59:14;;;;;;;22.57;11.30;;;;;;;-143.84;47.12;45123.34;5092414;28;20479;-67
2023/03/26 11:01:47;;;;;;;12.67;8.70;;;;;;;-143.84;47.15;45142.38;5093601;28;20454;-67
2023/03/26 11:04:34;;;;;;;26.33;15.00;;;;;;;-143.84;46.35;45130.94;5092098;28;20444;-67
2023/03/26 11:07:13;;;;;;;4.83;3.30;;;;;;;-143.84;45.64;45123.34;5093458;28;20452;-67
2023/03/26 11:09:47;;;;;;;2.13;1.93;;;;;;;-143.84;44.40;45123.34;5097708;28;21072;-67
2023/03/26 11:12:26;;;;;;;41.10;19.97;;;;;;;-143.84;45.19;45117.63;5099948;28;20446;-69
2023/03/26 11:15:03;;;;;;;5.37;4.27;;;;;;;-143.84;45.15;45130.94;5100192;28;20880;-69
2023/03/26 11:17:42;;;;;;;2.97;2.80;;;;;;;-143.84;45.21;45127.13;5093977;28;20454;-68
2023/03/26 11:20:17;;;;;;;10.67;7.00;;;;;;;-143.84;46.06;45136.66;5054008;28;20500;-67
2023/03/26 11:22:56;;;;;;;14.60;7.50;;;;;;;-143.84;45.13;45148.09;5045394;28;20441;-65
2023/03/26 11:25:57;;;;;;;4.43;3.60;;;;;;;-143.84;45.69;45111.91;5046061;28;20971;-66
2023/03/26 11:28:40;;;;;;;7.20;4.33;;;;;;;-143.84;46.63;45136.66;5048351;28;20456;-67
2023/03/26 11:31:18;;;;;;;14.10;8.67;;;;;;;-143.84;45.48;45117.63;5051566;28;20613;-66
2023/03/26 11:33:49;;;;;;;9.00;5.93;;;;;;;-143.84;45.44;45129.03;5051306;28;20457;-66
2023/03/26 11:36:24;;;;;;;14.93;8.83;;;;;;;-143.84;45.78;45119.53;5050892;28;20464;-66
2023/03/26 11:38:56;;;;;;;24.70;9.37;;;;;;;-143.84;45.22;45132.84;5051096;28;20445;-66
2023/03/26 11:41:26;;;;;;;11.40;3.60;;;;;;;-143.84;44.43;45130.94;5051440;28;20543;-66
2023/03/26 11:43:57;;;;;;;24.20;5.23;;;;;;;-143.84;44.75;45121.44;5051153;28;20523;-67